Flight Track Log - Related Links

Times and Time Zones

All times are in EDT time to prevent confusion due to time zone crossing. See the WBR2633 flight status page for this flight to view local times or setup timezone preferences in your user account.

Time Position Orientation Groundspeed Altitude Reporting Facility
EDT Latitude Longitude Course Direction KTS MPH feet Rate Location/Type
Thu 11:19:18 AM 40.7400 -91.0892 164° South 132 152 2,400  Level Kansas Center
Thu 11:20:00 AM 40.5925 -91.0527 164° South  Level Estimated
Thu 11:20:19 AM 40.7064 -91.0875 178° South 117 135 3,100  Level Chicago Center
Thu 11:21:00 AM 40.5544 -91.0382 164° South  Level Estimated
Thu 11:21:21 AM 40.6767 -91.0903 184° South 112 129 3,700  Level Chicago Center
Thu 11:22:00 AM 40.5163 -91.0237 164° South  Level Estimated
Thu 11:22:22 AM 40.6444 -91.0775 163° South 118 136 4,200  Level Chicago Center
Thu 11:23:00 AM 40.4781 -91.0092 164° South  Level Estimated
Thu 11:23:24 AM 40.6103 -91.0633 163° South 123 142 4,800  Level Chicago Center
Thu 11:24:00 AM 40.4400 -90.9947 164° South  Level Estimated
Thu 11:24:26 AM 40.5775 -91.0508 164° South 125 144 5,300  Level Chicago Center
Thu 11:25:28 AM 40.5369 -91.0350 163° South 126 145 6,000 634 Climbing Chicago Center
Thu 11:26:29 AM 40.5056 -91.0203 160° South 122 140 6,600 488 Climbing Chicago Center
Thu 11:27:31 AM 40.4717 -91.0097 167° South 123 142 7,000 242 Climbing Chicago Center
Thu 11:28:33 AM 40.4353 -90.9975 166° South 129 148 7,100 48 Climbing Chicago Center
Thu 11:29:35 AM 40.4003 -90.9822 162° South 132 152 7,100 -49 Level Chicago Center
Thu 11:30:36 AM 40.3661 -90.9683 163° South 130 150 7,000 -49 Descending Chicago Center
Thu 11:31:38 AM 40.3300 -90.9547 164° South 133 153 7,000 48 Level Chicago Center
Thu 11:32:40 AM 40.2869 -90.9381 164° South 134 154 7,100 48 Climbing Chicago Center
Thu 11:33:42 AM 40.2517 -90.9239 163° South 135 155 7,100  Level Chicago Center
Thu 11:34:49 AM 40.2150 -90.9103 164° South 137 158 7,100 -47 Level Kansas Center
Thu 11:35:51 AM 40.1772 -90.8961 164° South 141 162 7,000 -48 Descending Kansas Center
Thu 11:36:53 AM 40.1350 -90.8789 163° South 135 155 7,000  Level Kansas Center
Thu 11:37:55 AM 40.0969 -90.8650 164° South 138 159 7,000  Level Kansas Center
Thu 11:38:57 AM 40.0625 -90.8533 165° South 132 152 7,000  Level Kansas Center
Thu 11:39:59 AM 40.0247 -90.8383 163° South 137 158 7,000  Level Kansas Center
Thu 11:41:01 AM 39.9897 -90.8244 163° South 135 155 7,000  Level Kansas Center
Thu 11:42:03 AM 39.9511 -90.8100 164° South 140 161 7,000  Level Kansas Center
Thu 11:43:05 AM 39.9047 -90.7947 166° South 144 166 7,000 48 Level Kansas Center
Thu 11:44:07 AM 39.8644 -90.7789 163° South 149 171 7,100 48 Climbing Kansas Center
Thu 11:45:09 AM 39.8242 -90.7658 166° South 150 173 7,100 -48 Level Kansas Center
Thu 11:46:11 AM 39.7906 -90.7483 158° South 136 157 7,000 -48 Descending Kansas Center
Thu 11:47:13 AM 39.7589 -90.7392 167° South 122 140 7,000  Level Kansas Center
Thu 11:48:15 AM 39.7231 -90.7239 162° South 125 144 7,000  Level Kansas Center
Thu 11:49:17 AM 39.6900 -90.7092 161° South 126 145 7,000 -48 Level Kansas Center
Thu 11:50:19 AM 39.6572 -90.7031 172° South 123 142 6,900  Descending Kansas Center
Thu 11:51:21 AM 39.6425 -90.7500 248° West 116 133 7,000 48 Climbing Kansas Center
Thu 11:52:23 AM 39.6389 -90.7897 263° West 111 128 7,000  Level Kansas Center
Thu 11:53:25 AM 39.6139 -90.8142 217° Southwest 114 131 7,000  Level Kansas Center
Thu 11:54:27 AM 39.5850 -90.8236 194° South 108 124 7,000  Level Kansas Center
Thu 11:55:29 AM 39.5542 -90.8150 168° South 122 140 7,000 48 Level Kansas Center
Thu 11:56:31 AM 39.5239 -90.7994 158° South 119 137 7,100  Climbing Kansas Center
Thu 11:57:33 AM 39.4869 -90.7764 154° Southeast 122 140 7,000 -48 Descending Kansas Center
Thu 11:58:35 AM 39.4564 -90.7589 156° South 122 140 7,000  Level Kansas Center
Thu 11:59:37 AM 39.4258 -90.7414 156° South 120 138 7,000  Level Kansas Center
Thu 12:00:39 PM 39.3958 -90.7236 155° Southeast 119 137 7,000  Level Kansas Center
Thu 12:01:41 PM 39.3669 -90.7006 148° Southeast 122 140 7,000  Level Kansas Center
Thu 12:02:43 PM 39.3397 -90.6700 139° Southeast 127 146 7,000  Level Kansas Center
Thu 12:03:45 PM 39.3056 -90.6408 147° Southeast 125 144 7,000 -290 Level Kansas Center
Thu 12:04:47 PM 39.2739 -90.6144 147° Southeast 131 151 6,400 -435 Descending Kansas Center
Thu 12:05:49 PM 39.2414 -90.5817 142° Southeast 144 166 6,100 -242 Descending Kansas Center
Thu 12:06:51 PM 39.2117 -90.5500 140° Southeast 141 162 5,900 -387 Descending Kansas Center
Thu 12:07:53 PM 39.1808 -90.5144 138° Southeast 146 168 5,300 -581 Descending Kansas Center
Thu 12:08:55 PM 39.1508 -90.4806 139° Southeast 146 168 4,700 -629 Descending Kansas Center
Thu 12:09:57 PM 39.1117 -90.4439 144° Southeast 145 167 4,000 -581 Descending Kansas Center
Thu 12:10:59 PM 39.0794 -90.4133 144° Southeast 145 167 3,500 -435 Descending Kansas Center
Thu 12:12:01 PM 39.0467 -90.3836 145° Southeast 145 167 3,100 -194 Descending Kansas Center
Thu 12:13:03 PM 39.0158 -90.3592 148° Southeast 139 160 3,100 -48 Level Kansas Center
Thu 12:14:05 PM 38.9875 -90.3339 145° Southeast 131 151 3,000 -145 Descending Kansas Center
Thu 12:15:07 PM 38.9592 -90.3056 142° Southeast 128 147 2,800 -242 Descending Kansas Center
Thu 12:16:09 PM 38.9272 -90.2731 142° Southeast 136 157 2,500 -97 Descending Kansas Center
Thu 12:17:11 PM 38.8861 -90.2681 175° South 130 150 2,600 -48 Climbing Kansas Center
Thu 12:18:13 PM 38.8500 -90.2678 180° South 129 148 2,400 -194 Descending Kansas Center
Thu 12:19:15 PM 38.8156 -90.2744 189° South 127 146 2,200 -336 Descending Kansas Center
Thu 12:20:18 PM 38.7828 -90.2994 211° Southwest 133 153 1,700 -576 Descending Kansas Center
Thu 12:21:20 PM 38.7628 -90.3411 238° Southwest 135 155 1,000 -484 Descending Kansas Center
Thu 12:22:22 PM 38.7456 -90.3883 245° Southwest 132 152 700 -290 Descending Kansas Center

Login

Don't have an account? Register now (free) for customized features, flight alerts, and more!